Time;durP1;ratioP1;P1;durP2;ratioP2;P2;SDS_P1;SDS_P2;PMS_P1;PMS_P2;Temp;Humidity;BMP_temperature;BMP_pressure;BME280_temperature;BME280_humidity;BME280_pressure;Samples;Min_cycle;Max_cycle;Signal;HPM_P1;HPM_P2
2023/08/30 00:00:59;;;;;;;3.00;2.70;;;;;;;13.91;100.00;99832.41;5007508;28;20223;-70
2023/08/30 00:03:26;;;;;;;3.30;2.80;;;;;;;13.86;100.00;99838.69;5006415;28;20232;-71
2023/08/30 00:05:52;;;;;;;4.07;2.80;;;;;;;13.85;100.00;99837.81;5009051;28;20290;-71
2023/08/30 00:08:19;;;;;;;3.13;2.83;;;;;;;13.86;100.00;99830.69;5008325;28;20220;-72
2023/08/30 00:10:47;;;;;;;3.17;2.87;;;;;;;13.90;100.00;99830.66;5010728;28;20557;-71
2023/08/30 00:13:13;;;;;;;4.37;2.93;;;;;;;13.95;100.00;99834.16;5003798;28;20223;-71
2023/08/30 00:15:40;;;;;;;5.17;3.30;;;;;;;14.01;100.00;99831.47;5007809;28;20206;-71
2023/08/30 00:18:06;;;;;;;4.87;2.60;;;;;;;14.15;100.00;99833.09;5008538;28;20220;-72
2023/08/30 00:20:33;;;;;;;4.30;3.00;;;;;;;14.16;100.00;99838.41;5008331;28;20291;-70
2023/08/30 00:23:03;;;;;;;4.47;2.87;;;;;;;14.09;100.00;99840.25;5004170;28;20200;-72
2023/08/30 00:25:29;;;;;;;4.23;3.20;;;;;;;14.05;100.00;99840.31;5007947;28;20208;-71
2023/08/30 00:27:56;;;;;;;5.03;3.00;;;;;;;14.02;100.00;99835.00;5007720;28;20220;-72
2023/08/30 00:30:22;;;;;;;6.30;3.03;;;;;;;14.09;100.00;99836.72;5007196;28;20658;-72
2023/08/30 00:32:49;;;;;;;3.93;2.93;;;;;;;14.06;100.00;99829.63;5005487;28;20212;-71
2023/08/30 00:35:15;;;;;;;4.03;3.20;;;;;;;14.20;100.00;99836.59;5003454;28;20718;-71
2023/08/30 00:37:41;;;;;;;6.50;3.70;;;;;;;14.23;100.00;99834.78;5007473;28;20313;-71
2023/08/30 00:40:08;;;;;;;4.40;3.43;;;;;;;14.29;100.00;99833.81;5007804;28;20219;-71
2023/08/30 00:42:34;;;;;;;6.03;3.60;;;;;;;14.31;100.00;99832.91;5002381;28;20188;-71
2023/08/30 00:45:01;;;;;;;4.77;3.43;;;;;;;14.24;100.00;99835.66;5006099;28;20420;-71
2023/08/30 00:47:27;;;;;;;5.23;3.40;;;;;;;14.17;100.00;99832.19;5007748;28;20731;-72
2023/08/30 00:49:54;;;;;;;5.10;3.47;;;;;;;14.20;100.00;99823.28;5009281;28;20204;-72
2023/08/30 00:52:20;;;;;;;5.73;4.30;;;;;;;14.18;100.00;99825.06;5007608;28;20233;-71
2023/08/30 00:54:47;;;;;;;4.00;3.43;;;;;;;14.14;100.00;99818.91;5003312;28;20208;-72
2023/08/30 00:57:13;;;;;;;5.03;3.30;;;;;;;14.15;100.00;99811.78;5012496;28;20299;-72
2023/08/30 00:59:42;;;;;;;3.53;3.10;;;;;;;14.12;100.00;99815.38;5008567;28;20196;-71
2023/08/30 01:02:09;;;;;;;4.00;3.30;;;;;;;14.07;100.00;99822.53;5005726;28;20668;-73
2023/08/30 01:04:35;;;;;;;3.50;3.20;;;;;;;14.01;100.00;99819.94;5005369;28;20287;-70
2023/08/30 01:07:02;;;;;;;3.37;2.83;;;;;;;13.98;100.00;99817.25;5007956;28;20311;-72
2023/08/30 01:09:28;;;;;;;5.77;3.23;;;;;;;13.93;100.00;99811.09;5022466;28;20219;-70
2023/08/30 01:12:02;;;;;;;4.70;3.50;;;;;;;13.94;100.00;99808.44;5005655;28;20196;-72
2023/08/30 01:14:35;;;;;;;8.27;3.57;;;;;;;13.96;100.00;99814.63;5002947;28;20248;-70
2023/08/30 01:17:04;;;;;;;6.50;3.73;;;;;;;13.98;100.00;99796.84;5006619;28;20219;-72
2023/08/30 01:19:45;;;;;;;5.27;4.00;;;;;;;14.06;100.00;99802.13;5004583;28;20228;-71
2023/08/30 01:22:16;;;;;;;4.97;3.73;;;;;;;14.00;100.00;99788.84;5006888;28;20684;-70
2023/08/30 01:24:48;;;;;;;4.90;3.40;;;;;;;13.99;100.00;99792.41;5000037;28;20204;-73
2023/08/30 01:27:17;;;;;;;4.90;3.77;;;;;;;14.02;100.00;99789.75;5003088;28;20212;-72
2023/08/30 01:29:46;;;;;;;4.67;3.80;;;;;;;14.05;100.00;99784.38;5003768;28;20691;-72
2023/08/30 01:32:12;;;;;;;3.97;3.53;;;;;;;14.14;100.00;99786.94;5017278;28;20287;-72
2023/08/30 01:34:39;;;;;;;5.80;3.77;;;;;;;14.10;100.00;99775.44;5000790;28;20204;-72
2023/08/30 01:37:10;;;;;;;4.20;3.80;;;;;;;14.19;100.00;99778.91;5002638;28;20231;-72
2023/08/30 01:39:37;;;;;;;6.63;3.80;;;;;;;14.14;100.00;99786.06;5018129;28;20196;-72
2023/08/30 01:42:05;;;;;;;4.73;3.90;;;;;;;14.15;100.00;99779.84;5005787;28;20200;-70
2023/08/30 01:44:33;;;;;;;4.63;3.87;;;;;;;14.16;100.00;99773.63;4996860;28;20204;-71
2023/08/30 01:47:00;;;;;;;4.97;3.83;;;;;;;14.18;100.00;99786.00;5004577;28;20230;-72
2023/08/30 01:49:32;;;;;;;4.97;3.83;;;;;;;14.18;100.00;99769.16;5007167;28;20582;-72
2023/08/30 01:51:59;;;;;;;4.63;4.20;;;;;;;14.22;100.00;99774.41;5008157;28;20222;-70
2023/08/30 01:54:27;;;;;;;4.37;3.50;;;;;;;14.23;100.00;99781.50;5006122;28;20223;-70
2023/08/30 01:56:54;;;;;;;3.87;3.50;;;;;;;14.15;100.00;99775.41;5003766;28;20220;-72
2023/08/30 01:59:20;;;;;;;4.90;3.60;;;;;;;14.16;100.00;99789.59;5007006;28;20204;-73
2023/08/30 02:01:47;;;;;;;4.07;3.00;;;;;;;14.16;100.00;99774.50;5007423;28;20325;-70
2023/08/30 02:04:13;;;;;;;3.50;3.20;;;;;;;14.19;100.00;99794.88;5005194;28;20527;-72
2023/08/30 02:07:00;;;;;;;4.67;3.30;;;;;;;14.16;100.00;99785.16;5006009;28;20244;-71
2023/08/30 02:09:32;;;;;;;4.67;3.30;;;;;;;14.07;100.00;99778.16;5007981;28;20196;-73
2023/08/30 02:12:04;;;;;;;4.27;3.00;;;;;;;14.07;100.00;99770.16;5006490;28;20207;-71
2023/08/30 02:14:32;;;;;;;3.90;3.17;;;;;;;13.99;100.00;99773.78;5004559;28;20638;-72
2023/08/30 02:16:59;;;;;;;3.63;3.10;;;;;;;13.92;100.00;99764.09;5005186;28;20223;-72
2023/08/30 02:19:25;;;;;;;4.20;3.33;;;;;;;13.87;100.00;99771.25;5007441;28;20204;-73
2023/08/30 02:21:52;;;;;;;6.20;3.33;;;;;;;13.84;100.00;99769.50;5005698;28;20192;-70
2023/08/30 02:24:18;;;;;;;3.97;3.13;;;;;;;13.88;100.00;99767.69;5003896;28;20748;-72
2023/08/30 02:26:45;;;;;;;3.83;2.90;;;;;;;13.85;100.00;99762.38;5004380;28;20235;-71
2023/08/30 02:29:13;;;;;;;3.27;2.97;;;;;;;13.74;100.00;99771.38;5003362;28;20208;-71
2023/08/30 02:31:39;;;;;;;6.10;3.33;;;;;;;13.65;100.00;99771.47;5004792;28;20227;-71
2023/08/30 02:34:05;;;;;;;3.60;3.30;;;;;;;13.59;100.00;99765.28;5004547;28;20224;-72
2023/08/30 02:36:32;;;;;;;4.73;3.70;;;;;;;13.57;100.00;99769.75;5005476;28;20223;-72
2023/08/30 02:38:58;;;;;;;3.83;3.27;;;;;;;13.54;100.00;99772.44;5003507;28;20235;-71
2023/08/30 02:41:25;;;;;;;3.90;3.30;;;;;;;13.61;100.00;99780.38;5007578;28;20391;-72
2023/08/30 02:43:51;;;;;;;5.30;3.40;;;;;;;13.61;100.00;99776.78;5001260;28;20208;-74
2023/08/30 02:46:17;;;;;;;4.03;3.50;;;;;;;13.58;100.00;99772.38;5005946;28;20201;-72
2023/08/30 02:48:44;;;;;;;4.20;3.20;;;;;;;13.60;100.00;99773.25;5005764;28;20196;-72
2023/08/30 02:51:10;;;;;;;5.33;3.37;;;;;;;13.74;100.00;99770.50;5006522;28;20297;-71
2023/08/30 02:53:36;;;;;;;6.37;3.47;;;;;;;13.75;100.00;99765.16;5001881;28;20223;-72
2023/08/30 02:56:03;;;;;;;3.83;3.43;;;;;;;13.84;100.00;99765.94;5003328;28;20198;-71
2023/08/30 02:58:29;;;;;;;4.07;3.60;;;;;;;13.88;100.00;99765.03;5003621;28;20577;-72
2023/08/30 03:01:01;;;;;;;4.00;3.37;;;;;;;13.99;100.00;99752.47;5009139;28;20211;-73
2023/08/30 03:03:27;;;;;;;5.30;3.53;;;;;;;14.15;100.00;99767.41;5004727;28;20471;-72
2023/08/30 03:05:54;;;;;;;3.40;3.03;;;;;;;14.07;100.00;99771.94;5004746;28;20200;-72
2023/08/30 03:08:20;;;;;;;4.57;3.57;;;;;;;14.01;100.00;99766.69;5007210;28;20751;-72
2023/08/30 03:10:47;;;;;;;3.90;3.50;;;;;;;14.02;100.00;99766.66;5004585;28;20196;-72
2023/08/30 03:13:13;;;;;;;4.43;3.57;;;;;;;14.05;100.00;99763.09;5008676;28;20216;-71
2023/08/30 03:15:39;;;;;;;5.93;3.80;;;;;;;14.02;100.00;99766.66;5009442;28;20556;-70
2023/08/30 03:18:06;;;;;;;4.33;3.63;;;;;;;13.96;100.00;99757.84;5009638;28;20328;-73
2023/08/30 03:20:33;;;;;;;4.30;3.60;;;;;;;13.89;100.00;99757.03;5006943;28;20208;-71
2023/08/30 03:22:59;;;;;;;5.57;4.00;;;;;;;13.87;100.00;99755.28;5008667;28;20211;-73
2023/08/30 03:25:30;;;;;;;7.43;4.47;;;;;;;13.86;100.00;99756.16;5006687;28;20475;-71
2023/08/30 03:27:56;;;;;;;4.43;4.00;;;;;;;13.88;100.00;99752.59;5009807;28;20286;-72
2023/08/30 03:30:22;;;;;;;4.47;3.83;;;;;;;13.88;100.00;99757.03;5009840;28;20204;-73
2023/08/30 03:32:49;;;;;;;4.87;4.17;;;;;;;13.88;100.00;99746.38;5001911;28;20648;-72
2023/08/30 03:35:16;;;;;;;5.13;3.90;;;;;;;13.87;100.00;99753.50;5006473;28;20200;-72
2023/08/30 03:37:43;;;;;;;4.87;3.67;;;;;;;13.80;100.00;99751.78;5008442;28;20727;-71
2023/08/30 03:40:10;;;;;;;4.83;3.60;;;;;;;13.72;100.00;99751.00;5009518;28;20219;-73
2023/08/30 03:42:36;;;;;;;4.17;3.60;;;;;;;13.70;100.00;99760.78;5007355;28;20196;-73
2023/08/30 03:45:05;;;;;;;4.37;3.30;;;;;;;13.63;100.00;99765.28;5005200;28;20756;-70
2023/08/30 03:47:31;;;;;;;4.50;3.50;;;;;;;13.52;100.00;99752.94;5009750;28;20220;-70
2023/08/30 03:49:58;;;;;;;4.17;3.63;;;;;;;13.45;100.00;99765.41;5009843;28;20196;-72
2023/08/30 03:52:25;;;;;;;6.77;4.17;;;;;;;13.39;100.00;99762.81;5023101;28;20240;-72
2023/08/30 03:54:51;;;;;;;4.13;3.50;;;;;;;13.34;100.00;99769.94;5007603;28;20220;-70
2023/08/30 03:57:17;;;;;;;5.73;3.70;;;;;;;13.31;100.00;99769.97;5008758;28;20212;-71
2023/08/30 03:59:44;;;;;;;5.00;3.90;;;;;;;13.25;100.00;99773.56;5012304;28;20228;-71
2023/08/30 04:02:10;;;;;;;7.33;4.03;;;;;;;13.21;100.00;99761.19;5006215;28;20560;-71
2023/08/30 04:04:37;;;;;;;5.53;4.00;;;;;;;13.21;100.00;99769.16;5007657;28;20215;-71
2023/08/30 04:07:04;;;;;;;5.20;3.63;;;;;;;13.35;100.00;99761.06;5009017;28;20223;-72
2023/08/30 04:09:31;;;;;;;5.20;4.70;;;;;;;13.32;100.00;99761.09;5008058;28;20203;-72
2023/08/30 04:11:59;;;;;;;6.27;3.87;;;;;;;13.34;100.00;99762.84;5008314;28;20299;-71
2023/08/30 04:14:26;;;;;;;6.53;4.60;;;;;;;13.41;100.00;99761.03;5007184;28;20235;-72
2023/08/30 04:16:52;;;;;;;5.60;4.50;;;;;;;13.49;100.00;99768.03;5010548;28;20223;-70
2023/08/30 04:19:19;;;;;;;7.37;4.27;;;;;;;13.48;100.00;99770.72;5006925;28;20664;-71
2023/08/30 04:21:45;;;;;;;5.50;3.93;;;;;;;13.53;100.00;99762.69;5007082;28;20245;-73
2023/08/30 04:24:12;;;;;;;5.10;3.80;;;;;;;13.51;100.00;99753.84;5004904;28;20291;-71
2023/08/30 04:26:38;;;;;;;6.27;3.70;;;;;;;13.37;100.00;99761.94;5007012;28;20238;-72
2023/08/30 04:29:05;;;;;;;5.23;4.00;;;;;;;13.26;100.00;99761.16;5008739;28;20291;-72
2023/08/30 04:31:31;;;;;;;14.30;4.83;;;;;;;13.24;100.00;99765.59;5006895;28;20206;-72
2023/08/30 04:33:58;;;;;;;8.87;5.03;;;;;;;13.29;100.00;99764.66;5000545;28;20223;-71
2023/08/30 04:36:24;;;;;;;11.17;4.90;;;;;;;13.27;100.00;99755.81;5008509;28;20283;-72
2023/08/30 04:38:50;;;;;;;11.00;5.07;;;;;;;13.33;100.00;99753.09;5010066;28;20220;-71
2023/08/30 04:41:28;;;;;;;16.77;5.83;;;;;;;13.37;100.00;99756.63;5008007;28;20573;-72
2023/08/30 04:43:55;;;;;;;13.87;5.90;;;;;;;13.40;100.00;99753.94;5002519;28;20192;-70
2023/08/30 04:46:21;;;;;;;21.17;6.33;;;;;;;13.46;100.00;99754.75;5011908;28;20407;-72
2023/08/30 04:48:47;;;;;;;21.60;6.90;;;;;;;13.47;100.00;99756.53;5010081;28;20668;-70
2023/08/30 04:51:14;;;;;;;22.40;6.70;;;;;;;13.40;100.00;99759.25;5008104;28;20306;-71
2023/08/30 04:53:42;;;;;;;14.20;6.40;;;;;;;13.35;100.00;99763.72;5021994;28;20295;-71
2023/08/30 04:56:17;;;;;;;13.23;5.87;;;;;;;13.25;100.00;99760.28;5004844;28;20196;-71
2023/08/30 04:58:44;;;;;;;14.70;6.17;;;;;;;13.25;100.00;99759.38;5008009;28;20199;-71
2023/08/30 05:01:13;;;;;;;11.33;6.00;;;;;;;13.28;100.00;99754.03;5006871;28;20668;-72
2023/08/30 05:03:40;;;;;;;10.73;5.83;;;;;;;13.22;100.00;99765.63;5003604;28;20280;-72
2023/08/30 05:06:06;;;;;;;13.00;6.50;;;;;;;13.23;100.00;99755.84;5004871;28;20283;-72
2023/08/30 05:08:33;;;;;;;8.57;5.73;;;;;;;13.29;100.00;99755.81;5004474;28;20582;-70
2023/08/30 05:10:59;;;;;;;12.10;6.27;;;;;;;13.24;100.00;99754.97;5006731;28;20628;-69
2023/08/30 05:13:26;;;;;;;9.30;6.43;;;;;;;13.24;100.00;99757.63;5004607;28;20696;-70
2023/08/30 05:15:52;;;;;;;9.17;6.23;;;;;;;13.24;100.00;99757.63;5006901;28;20204;-69
2023/08/30 05:18:19;;;;;;;8.90;6.50;;;;;;;13.22;100.00;99752.31;5005755;28;20216;-69
2023/08/30 05:20:45;;;;;;;11.60;7.03;;;;;;;13.25;100.00;99744.31;5007608;28;20286;-68
2023/08/30 05:23:12;;;;;;;10.87;6.80;;;;;;;13.24;100.00;99752.31;5007488;28;20192;-70
2023/08/30 05:25:38;;;;;;;16.77;7.93;;;;;;;13.29;100.00;99747.81;5005933;28;20194;-68
2023/08/30 05:28:05;;;;;;;11.13;6.60;;;;;;;13.32;100.00;99758.44;5003666;28;20674;-67
2023/08/30 05:30:31;;;;;;;12.37;7.67;;;;;;;13.37;100.00;99756.63;5007254;28;20591;-68
2023/08/30 05:32:58;;;;;;;12.77;7.10;;;;;;;13.49;100.00;99757.38;5004278;28;20656;-68
2023/08/30 05:35:24;;;;;;;15.80;6.80;;;;;;;13.54;100.00;99756.47;5005000;28;20216;-69
2023/08/30 05:37:51;;;;;;;17.37;7.33;;;;;;;13.62;100.00;99757.31;5006866;28;20231;-70
2023/08/30 05:40:18;;;;;;;14.40;7.67;;;;;;;13.67;100.00;99750.16;5003810;28;20208;-70
2023/08/30 05:42:45;;;;;;;11.00;6.97;;;;;;;13.82;100.00;99757.09;5002340;28;20664;-71
2023/08/30 05:45:11;;;;;;;11.27;7.03;;;;;;;13.88;100.00;99752.59;5020061;28;20235;-69
2023/08/30 05:47:38;;;;;;;14.27;7.53;;;;;;;13.90;100.00;99747.25;5011751;28;20220;-69
2023/08/30 05:50:05;;;;;;;12.87;7.17;;;;;;;13.99;100.00;99744.50;5014972;28;20299;-70
2023/08/30 05:52:32;;;;;;;15.70;7.80;;;;;;;14.09;100.00;99747.06;5003475;28;20192;-70
2023/08/30 05:54:59;;;;;;;17.20;6.90;;;;;;;14.24;100.00;99756.63;5004633;28;20230;-69
2023/08/30 05:57:27;;;;;;;22.40;8.00;;;;;;;14.37;100.00;99757.38;5000526;28;20221;-69
2023/08/30 05:59:53;;;;;;;21.43;8.10;;;;;;;14.45;100.00;99760.88;5016081;28;20204;-72
2023/08/30 06:02:20;;;;;;;20.07;7.80;;;;;;;14.67;100.00;99757.00;5002685;28;20192;-72
2023/08/30 06:04:46;;;;;;;15.67;8.13;;;;;;;14.80;100.00;99764.84;5000929;28;20283;-71
2023/08/30 06:07:13;;;;;;;20.27;8.87;;;;;;;14.89;100.00;99756.72;4998961;28;20211;-73
2023/08/30 06:09:39;;;;;;;16.93;8.70;;;;;;;15.03;100.00;99752.06;5003375;28;20254;-71
2023/08/30 06:12:06;;;;;;;16.17;8.47;;;;;;;15.15;100.00;99757.22;5003897;28;20192;-72
2023/08/30 06:14:32;;;;;;;16.00;8.47;;;;;;;15.24;100.00;99749.09;4998417;28;20315;-70
2023/08/30 06:16:59;;;;;;;16.40;7.30;;;;;;;15.30;100.00;99754.31;5001669;28;20228;-71
2023/08/30 06:19:25;;;;;;;19.43;7.57;;;;;;;15.40;100.00;99763.06;4995049;28;20571;-71
2023/08/30 06:21:51;;;;;;;15.53;6.57;;;;;;;15.51;100.00;99747.75;5005577;28;20196;-70
2023/08/30 06:24:18;;;;;;;17.33;7.13;;;;;;;15.68;100.00;99752.84;4982462;28;20211;-70
2023/08/30 06:26:44;;;;;;;10.40;6.97;;;;;;;15.86;100.00;99759.63;4998319;28;20219;-70
2023/08/30 06:29:10;;;;;;;14.87;8.10;;;;;;;15.93;100.00;99756.81;4999183;28;20385;-71
2023/08/30 06:31:37;;;;;;;12.63;6.90;;;;;;;16.11;100.00;99754.72;5000537;28;20204;-70
2023/08/30 06:34:03;;;;;;;16.47;7.83;;;;;;;16.27;100.00;99756.16;5000996;28;20314;-70
2023/08/30 06:36:30;;;;;;;12.80;7.20;;;;;;;16.45;100.00;99761.16;4997931;28;20455;-70
2023/08/30 06:38:56;;;;;;;13.13;8.03;;;;;;;16.49;100.00;99759.31;5000770;28;20206;-71
2023/08/30 06:41:23;;;;;;;14.73;8.30;;;;;;;16.64;100.00;99761.63;5015062;28;20211;-71
2023/08/30 06:43:49;;;;;;;17.10;8.43;;;;;;;16.64;100.00;99763.44;5001196;28;20201;-71
2023/08/30 06:46:16;;;;;;;12.07;8.10;;;;;;;16.66;100.00;99762.50;5003829;28;20192;-71
2023/08/30 06:48:42;;;;;;;21.10;9.77;;;;;;;16.57;100.00;99760.88;5003350;28;20197;-71
2023/08/30 06:51:10;;;;;;;15.23;9.23;;;;;;;16.51;100.00;99752.13;5001383;28;20282;-70
2023/08/30 06:53:36;;;;;;;15.40;9.70;;;;;;;16.59;100.00;99747.50;5000483;28;20482;-71
2023/08/30 06:56:03;;;;;;;17.20;10.60;;;;;;;16.74;100.00;99752.53;5004720;28;20224;-73
2023/08/30 06:58:29;;;;;;;19.93;11.17;;;;;;;16.99;100.00;99744.84;5005031;28;20242;-72
2023/08/30 07:01:00;;;;;;;18.30;11.27;;;;;;;17.09;100.00;99740.16;5002397;28;20286;-69
2023/08/30 07:03:26;;;;;;;16.50;11.77;;;;;;;17.34;100.00;99743.13;5004396;28;20258;-70
2023/08/30 07:05:53;;;;;;;16.50;11.50;;;;;;;17.51;100.00;99751.63;5002620;28;20279;-70
2023/08/30 07:08:19;;;;;;;20.43;12.37;;;;;;;17.74;100.00;99748.41;5004779;28;20219;-69
2023/08/30 07:10:46;;;;;;;19.53;12.43;;;;;;;17.88;100.00;99748.91;5004384;28;20200;-68
2023/08/30 07:13:13;;;;;;;16.93;11.83;;;;;;;18.07;100.00;99757.34;5006471;28;20279;-68
2023/08/30 07:15:40;;;;;;;17.03;10.93;;;;;;;18.07;100.00;99749.31;5004099;28;20220;-68
2023/08/30 07:18:08;;;;;;;20.00;10.83;;;;;;;17.98;100.00;99750.41;5005040;28;20323;-69
2023/08/30 07:20:36;;;;;;;13.87;9.83;;;;;;;18.17;100.00;99740.09;5003654;28;20204;-69
2023/08/30 07:23:03;;;;;;;14.73;10.07;;;;;;;18.25;100.00;99734.50;5000560;28;20657;-69
2023/08/30 07:25:32;;;;;;;14.90;10.70;;;;;;;18.36;100.00;99737.75;5004050;28;20252;-70
2023/08/30 07:28:01;;;;;;;13.70;10.30;;;;;;;18.29;100.00;99736.16;5005504;28;20228;-69
2023/08/30 07:30:28;;;;;;;13.00;9.67;;;;;;;18.45;100.00;99737.50;5004692;28;20227;-69
2023/08/30 07:32:54;;;;;;;13.67;9.73;;;;;;;18.67;100.00;99744.00;5001570;28;20207;-69
2023/08/30 07:35:21;;;;;;;11.07;8.90;;;;;;;18.92;100.00;99748.66;5003639;28;20274;-70
2023/08/30 07:37:47;;;;;;;12.50;9.53;;;;;;;19.03;100.00;99741.13;5001853;28;20216;-70
2023/08/30 07:40:14;;;;;;;12.30;8.63;;;;;;;19.29;100.00;99743.88;5004427;28;20200;-69
2023/08/30 07:42:40;;;;;;;11.33;8.30;;;;;;;19.46;100.00;99740.63;5006634;28;20200;-69
2023/08/30 07:45:07;;;;;;;11.57;7.97;;;;;;;19.85;100.00;99741.09;5002474;28;20210;-69
2023/08/30 07:47:33;;;;;;;12.63;8.68;;;;;;;20.03;100.00;99734.22;5000804;28;20228;-68
2023/08/30 07:50:00;;;;;;;13.75;9.27;;;;;;;19.68;100.00;99728.28;4995869;28;20385;-69
2023/08/30 07:52:26;;;;;;;12.33;8.60;;;;;;;19.65;100.00;99739.13;5001263;28;20207;-69
2023/08/30 07:55:10;;;;;;;11.10;8.07;;;;;;;19.81;100.00;99742.16;5003357;28;20668;-71
2023/08/30 07:57:36;;;;;;;12.45;9.00;;;;;;;19.40;100.00;99740.81;5000478;28;20235;-73
2023/08/30 08:00:03;;;;;;;11.77;8.33;;;;;;;19.22;100.00;99746.81;4999278;28;20684;-68
2023/08/30 08:02:30;;;;;;;11.13;8.53;;;;;;;19.20;100.00;99738.78;5000427;28;20214;-69
2023/08/30 08:04:56;;;;;;;12.37;8.30;;;;;;;19.39;100.00;99739.94;5004594;28;20196;-69
2023/08/30 08:07:24;;;;;;;11.57;8.07;;;;;;;19.40;100.00;99743.50;5001958;28;21611;-69
2023/08/30 08:09:55;;;;;;;15.05;7.97;;;;;;;19.35;100.00;99735.59;5003290;28;20205;-70
2023/08/30 08:12:21;;;;;;;12.60;6.83;;;;;;;19.19;100.00;99741.50;5002675;28;20207;-69
2023/08/30 08:14:47;;;;;;;11.23;7.57;;;;;;;19.35;100.00;99743.66;5000194;28;20231;-69
2023/08/30 08:17:14;;;;;;;10.52;6.75;;;;;;;19.49;100.00;99742.31;5005956;28;20787;-70
2023/08/30 08:19:42;;;;;;;10.40;6.90;;;;;;;19.25;100.00;99752.06;5003686;28;20299;-68
2023/08/30 08:22:09;;;;;;;10.07;6.20;;;;;;;19.18;100.00;99750.50;5001986;28;20313;-69
2023/08/30 08:24:35;;;;;;;8.57;6.50;;;;;;;19.16;100.00;99753.22;4999707;28;20205;-68
2023/08/30 08:27:02;;;;;;;8.27;6.40;;;;;;;19.16;100.00;99747.84;5003712;28;20322;-68
2023/08/30 08:29:28;;;;;;;9.07;7.00;;;;;;;19.14;100.00;99749.72;5005181;28;20204;-68
2023/08/30 08:31:55;;;;;;;8.87;6.50;;;;;;;19.29;100.00;99754.59;5003196;28;20609;-68
2023/08/30 08:34:21;;;;;;;10.75;6.60;;;;;;;19.20;100.00;99745.94;5014893;28;20258;-69
2023/08/30 08:36:51;;;;;;;9.27;6.53;;;;;;;19.07;100.00;99750.84;4998811;28;20227;-69
2023/08/30 08:39:18;;;;;;;11.97;7.00;;;;;;;19.08;100.00;99756.16;5002471;28;20193;-69
2023/08/30 08:41:45;;;;;;;10.70;6.90;;;;;;;19.10;100.00;99751.63;5000894;28;20204;-68
2023/08/30 08:44:12;;;;;;;10.17;6.87;;;;;;;19.32;100.00;99748.25;5001867;28;20204;-69
2023/08/30 08:46:40;;;;;;;11.00;6.37;;;;;;;19.50;100.00;99750.31;5005845;28;20218;-69
2023/08/30 08:49:16;;;;;;;9.83;6.57;;;;;;;19.66;100.00;99758.81;5003185;28;20200;-69
2023/08/30 08:51:44;;;;;;;8.93;6.33;;;;;;;19.67;100.00;99753.38;5003990;28;20196;-70
2023/08/30 08:54:12;;;;;;;7.72;6.00;;;;;;;19.89;100.00;99755.31;4995913;28;20943;-69
2023/08/30 08:56:40;;;;;;;9.98;5.95;;;;;;;20.11;100.00;99750.06;5001278;28;20220;-69
2023/08/30 08:59:07;;;;;;;10.73;6.60;;;;;;;20.13;100.00;99748.22;5003801;28;20208;-68
2023/08/30 09:01:39;;;;;;;9.02;6.80;;;;;;;19.91;100.00;99750.75;5007022;28;20310;-68
2023/08/30 09:04:07;;;;;;;7.80;6.30;;;;;;;19.93;100.00;99747.09;5002615;28;20204;-67
2023/08/30 09:06:39;;;;;;;10.30;6.65;;;;;;;19.88;100.00;99738.31;5001571;28;20238;-72
2023/08/30 09:09:08;;;;;;;7.88;6.45;;;;;;;20.12;100.00;99739.25;5001506;28;20232;-73
2023/08/30 09:11:34;;;;;;;8.88;6.55;;;;;;;20.31;100.00;99740.34;5001713;28;20614;-72
2023/08/30 09:14:17;;;;;;;9.65;6.22;;;;;;;20.53;100.00;99737.78;5006249;28;20196;-71
2023/08/30 09:17:03;;;;;;;7.93;5.47;;;;;;;20.70;100.00;99730.84;5017397;28;20497;-71
2023/08/30 09:19:30;;;;;;;19.35;8.13;;;;;;;20.88;100.00;99730.16;5021739;28;20639;-71
2023/08/30 09:21:59;;;;;;;8.77;6.75;;;;;;;20.96;100.00;99718.16;5011550;28;20200;-71
2023/08/30 09:24:38;;;;;;;7.05;6.07;;;;;;;20.93;100.00;99714.69;5018692;28;20392;-72
2023/08/30 09:27:05;;;;;;;7.28;5.47;;;;;;;20.96;100.00;99712.75;5022583;28;20220;-72
2023/08/30 09:29:31;;;;;;;8.60;5.63;;;;;;;21.10;100.00;99714.00;5008506;28;20211;-71
2023/08/30 09:31:58;;;;;;;7.95;5.97;;;;;;;20.85;100.00;99712.31;5021401;28;20329;-71
2023/08/30 09:34:27;;;;;;;6.80;5.65;;;;;;;20.87;100.00;99705.06;5019684;28;20200;-71
2023/08/30 09:36:55;;;;;;;6.15;5.10;;;;;;;21.15;100.00;99706.63;5007464;28;20220;-70
2023/08/30 09:39:21;;;;;;;7.68;5.30;;;;;;;21.29;100.00;99703.41;5010378;28;20204;-69
2023/08/30 09:41:49;;;;;;;6.53;5.43;;;;;;;21.51;100.00;99704.25;5000080;28;21254;-68
2023/08/30 09:44:18;;;;;;;6.50;5.53;;;;;;;21.50;100.00;99699.81;5021319;28;20294;-68
2023/08/30 09:46:46;;;;;;;8.15;5.68;;;;;;;21.57;100.00;99695.91;5007986;28;20216;-68
2023/08/30 09:49:21;;;;;;;7.70;5.32;;;;;;;21.76;100.00;99696.00;5014987;28;20199;-68
2023/08/30 09:51:49;;;;;;;6.80;5.55;;;;;;;21.98;100.00;99691.41;5014945;28;20203;-68
2023/08/30 09:54:24;;;;;;;8.63;4.97;;;;;;;22.36;100.00;99689.72;5009215;28;20288;-68
2023/08/30 09:56:55;;;;;;;9.02;5.30;;;;;;;22.81;91.82;99683.13;5017620;28;20239;-68
2023/08/30 09:59:22;;;;;;;7.75;4.70;;;;;;;22.80;79.55;99684.97;5017129;28;20200;-69
2023/08/30 10:01:50;;;;;;;8.07;4.35;;;;;;;22.80;71.35;99684.06;5023501;28;20246;-68
2023/08/30 10:04:19;;;;;;;4.70;3.90;;;;;;;23.23;70.52;99671.22;5004222;28;20338;-69
2023/08/30 10:06:46;;;;;;;5.47;4.50;;;;;;;22.87;69.40;99661.25;5010925;28;20212;-69
2023/08/30 10:09:14;;;;;;;7.45;4.40;;;;;;;23.06;69.84;99672.91;5011170;28;20204;-69
2023/08/30 10:11:44;;;;;;;4.80;4.22;;;;;;;23.36;68.13;99665.09;5015075;28;20204;-70
2023/08/30 10:14:13;;;;;;;6.38;4.35;;;;;;;23.12;66.98;99656.38;5017691;28;20203;-70
2023/08/30 10:16:49;;;;;;;7.82;4.80;;;;;;;23.16;68.30;99658.94;5009305;28;20636;-69
2023/08/30 10:19:17;;;;;;;5.32;4.00;;;;;;;23.41;66.10;99652.22;5007360;28;20242;-69
2023/08/30 10:21:44;;;;;;;6.57;4.20;;;;;;;23.26;64.40;99649.44;5014860;28;20629;-70
2023/08/30 10:24:13;;;;;;;6.20;4.18;;;;;;;23.47;64.82;99663.69;5011705;28;20206;-69
2023/08/30 10:27:03;;;;;;;5.20;3.92;;;;;;;23.52;63.04;99648.09;5006350;28;20230;-69
2023/08/30 10:29:33;;;;;;;4.72;3.75;;;;;;;23.28;63.51;99652.94;5020879;28;20226;-69
2023/08/30 10:32:06;;;;;;;5.50;4.22;;;;;;;23.11;64.38;99651.94;5007728;28;20559;-70
2023/08/30 10:34:36;;;;;;;4.35;3.35;;;;;;;23.34;63.88;99652.63;5009833;28;20538;-70
2023/08/30 10:37:07;;;;;;;5.57;3.47;;;;;;;23.48;62.17;99641.09;4998458;28;20220;-69
2023/08/30 10:39:39;;;;;;;4.65;3.30;;;;;;;23.67;62.06;99642.81;5010809;28;20196;-70
2023/08/30 10:42:13;;;;;;;9.45;4.38;;;;;;;23.00;66.77;99650.72;5009531;28;20594;-70
2023/08/30 10:45:08;;;;;;;6.00;4.72;;;;;;;22.20;70.21;99643.69;5007989;28;20679;-70
2023/08/30 10:47:40;;;;;;;5.35;4.30;;;;;;;22.08;72.46;99648.78;5013645;28;20307;-69
2023/08/30 10:50:10;;;;;;;5.05;4.25;;;;;;;21.38;72.07;99641.06;5017587;28;20222;-69
2023/08/30 10:52:37;;;;;;;5.43;4.20;;;;;;;21.42;72.91;99640.00;5015809;28;20196;-70
2023/08/30 10:55:11;;;;;;;4.70;4.20;;;;;;;21.29;73.87;99628.88;5008637;28;20225;-71
2023/08/30 10:57:42;;;;;;;4.97;4.07;;;;;;;21.30;74.18;99624.38;5024138;28;20223;-70
2023/08/30 11:00:10;;;;;;;4.85;3.85;;;;;;;21.48;72.79;99620.88;5007726;28;20471;-70
2023/08/30 11:02:38;;;;;;;4.95;3.92;;;;;;;21.56;74.33;99624.09;5012717;28;20204;-71
2023/08/30 11:05:06;;;;;;;5.05;3.85;;;;;;;21.56;73.15;99618.72;5016102;28;20675;-71
2023/08/30 11:07:33;;;;;;;7.95;3.67;;;;;;;21.39;71.74;99623.97;5017451;28;20480;-72
2023/08/30 11:09:59;;;;;;;5.00;3.95;;;;;;;21.66;72.32;99612.00;4998398;28;20653;-72
2023/08/30 11:12:26;;;;;;;4.75;3.78;;;;;;;22.09;69.35;99607.38;5005070;28;20196;-72
2023/08/30 11:14:54;;;;;;;7.00;3.45;;;;;;;22.57;67.47;99625.78;5039246;28;20195;-72
2023/08/30 11:17:21;;;;;;;5.03;3.97;;;;;;;22.71;66.22;99614.31;5011734;28;20727;-72
2023/08/30 11:19:51;;;;;;;4.32;3.28;;;;;;;23.01;66.37;99606.56;5011788;28;20207;-71
2023/08/30 11:22:18;;;;;;;8.70;3.40;;;;;;;23.48;63.40;99603.25;5003206;28;20292;-71
2023/08/30 11:24:47;;;;;;;3.38;2.95;;;;;;;23.67;58.89;99610.38;5011044;28;20262;-71
2023/08/30 11:27:16;;;;;;;3.25;2.60;;;;;;;23.60;55.04;99591.81;5009246;28;20631;-71